메인 페이지
METAR-TAF:

METAR-TAF

공항 :

풀코보 국제공항

상트페테르부르크, 러시아

위도: 59-58N, 경도: 030-18E, 고도: 4m

현재 날씨관측

예보는 35분 전, 18:00시(UTC)에 발표되었습니다.
서북서23kt
온도 -3°C
습도 80%
기압 994 hPa
시정 10km 이상
고도 1000ft 상공 구름 보통
고도 2000ft 상공 흐림
약한눈, 낮은 날린눈

METAR: ULLI 201800Z 30012MPS 9999 -SN DRSN SCT010 OVC020 M03/M06 Q0994 R28L/550542 NOSIG

시각: 21:35 (18:35 UTC)

예보

예보는 1 시간 34분 전, 17:01시(UTC)에 발표되었습니다.
예보 대상 시간: 20일 18시부터 21일 18시까지 (UTC)
서북서19kt, 순간 최대 풍속 29kt
시정: 4000m
고도 1100ft 상공 구름 많음
고도 1500ft 상공 구름 많음
약한눈, 날린눈
일시적
20일 18시부터 20일 21시까지 (UTC)
북북서19kt, 순간 최대 풍속 33kt
시정: 1200m
고도 700ft 상공 구름 많음
고도 1500ft 상공 구름 많음, 적란운.
소낙눈, 날린눈
전환 중
20일 21시부터 20일 22시까지 (UTC)
북북서19kt, 순간 최대 풍속 35kt
일시적
20일 21시부터 21일 06시까지 (UTC)
시정: 2100m
고도 1100ft 상공 구름 많음
고도 1500ft 상공 구름 많음, 적란운.
약한소낙눈, 날린눈
21일 0900시부터 (UTC)
14kt, 순간 최대 풍속 27kt
시정 10km 이상
고도 1100ft 상공 구름 보통

TAF: ULLI 201701Z 2018/2118 30010G15MPS 4000 -SN BLSN BKN011 BKN015 TEMPO 2018/2021 34010G17MPS 1200 SHSN BLSN BKN007 BKN015CB BECMG 2021/2022 34010G18MPS TEMPO 2021/2106 2100 -SHSN BLSN BKN011 BKN015CB FM210900 35007G14MPS 9999 SCT011

4,000개 이상의 공항 관측 자료 및 예보 (METAR 및 TAF 보고).

지도상에서 검색 가능한 기상관측소가 노란 점과 빨간 점으로 표시되어 있습니다.

기상관측소 명을 보려면 표시 위로 마우스를 이동하세요.

날씨 관측과 예보를 보려면 클릭하세요.

지도 변경 : 확대하려면 엑스 표시가 있는 녹색 버튼, 축소하려면 빼기 표시가 있는 녹색 버튼, 다음 페이지의 지도를 보려면 녹색 화살표를 클릭하세요.


METAR-TAF: